createdAt,value
2019-05-21T00:00:49.282Z,79.62
2019-05-21T00:15:49.190Z,79.53
2019-05-21T00:45:49.519Z,79.13
2019-05-21T01:00:54.956Z,79.08
2019-05-21T01:15:49.850Z,79.15
2019-05-21T01:30:51.830Z,79.33
2019-05-21T01:45:50.171Z,79.57
2019-05-21T02:00:49.822Z,79.95
2019-05-21T02:15:50.191Z,80.03
2019-05-21T02:30:50.056Z,81.57
2019-05-21T02:45:52.017Z,81.78
2019-05-21T03:00:57.690Z,81.72
2019-05-21T03:15:51.848Z,81.33
2019-05-21T03:30:49.332Z,80.48
2019-05-21T03:45:51.322Z,75.16
2019-05-21T04:00:49.265Z,68.07
2019-05-21T04:30:55.044Z,57.78
2019-05-21T04:45:52.312Z,54.19
2019-05-21T05:00:50.922Z,53.55
2019-05-21T05:15:52.633Z,49.08
2019-05-21T05:30:49.840Z,47.28
2019-05-21T05:45:51.307Z,45.10
2019-05-21T06:00:49.183Z,43.52
2019-05-21T06:15:49.085Z,43.24
2019-05-21T06:30:52.109Z,41.62
2019-05-21T06:45:50.140Z,41.60
2019-05-21T07:00:51.592Z,40.25
2019-05-21T07:15:49.299Z,36.44
2019-05-21T07:30:49.307Z,34.97
2019-05-21T07:45:55.296Z,31.33
2019-05-21T08:00:49.258Z,29.55
2019-05-21T08:15:49.600Z,28.41
2019-05-21T08:45:49.503Z,25.56
2019-05-21T09:00:49.455Z,24.95
2019-05-21T09:15:50.285Z,26.85
2019-05-21T09:30:49.234Z,29.38
2019-05-21T09:45:49.694Z,31.76
2019-05-21T10:15:50.374Z,26.78
2019-05-21T10:30:50.601Z,26.23
2019-05-21T10:45:50.473Z,27.11
2019-05-21T11:00:52.188Z,26.52
2019-05-21T11:15:50.836Z,26.98
2019-05-21T11:30:49.204Z,26.15
2019-05-21T11:45:50.742Z,27.69
2019-05-21T12:00:49.849Z,34.05
2019-05-21T12:15:49.558Z,36.00
2019-05-21T12:30:55.500Z,36.77
2019-05-21T12:45:49.713Z,37.36
2019-05-21T13:00:49.549Z,38.03
2019-05-21T13:15:49.770Z,38.81
2019-05-21T13:30:50.351Z,41.98
2019-05-21T13:45:50.103Z,41.37
2019-05-21T14:00:50.796Z,41.97
2019-05-21T14:15:49.945Z,46.25
2019-05-21T14:30:50.442Z,44.46
2019-05-21T14:45:49.953Z,43.73
2019-05-21T15:00:49.378Z,43.33
2019-05-21T15:15:49.579Z,42.25
2019-05-21T15:30:49.366Z,42.90
2019-05-21T15:45:52.288Z,42.81
2019-05-21T16:00:50.073Z,46.77
2019-05-21T16:15:55.427Z,46.06
2019-05-21T16:30:55.374Z,45.55
2019-05-21T16:45:49.893Z,45.29
2019-05-21T17:00:51.083Z,47.26
2019-05-21T17:15:49.658Z,48.41
2019-05-21T17:30:49.184Z,49.19
2019-05-21T17:45:49.635Z,49.71
2019-05-21T18:00:50.757Z,50.64
2019-05-21T18:15:51.952Z,52.64
2019-05-21T18:30:51.442Z,54.48
2019-05-21T19:15:58.930Z,53.52
2019-05-21T19:45:57.252Z,55.47
2019-05-21T20:00:51.620Z,57.24
2019-05-21T20:15:57.499Z,58.37
2019-05-21T20:30:50.084Z,58.91
2019-05-21T20:45:55.734Z,59.43
2019-05-21T21:00:55.292Z,61.57
2019-05-21T21:15:49.544Z,59.42
2019-05-21T21:30:50.149Z,60.33
2019-05-21T21:45:49.282Z,59.88
2019-05-21T22:15:58.183Z,60.80
2019-05-21T22:30:54.991Z,61.00
2019-05-21T22:45:56.727Z,61.17
2019-05-21T23:00:54.045Z,61.30
2019-05-21T23:15:50.861Z,61.56
2019-05-21T23:30:49.733Z,62.24
2019-05-21T23:45:52.792Z,62.73
